Irene, Illinois
Current Conditions -  °F | °C
As of 12:54 AM on Sunday 21 Dec 2014 (Local Time) from KRFD Reporting Station
Drizzle Drizzle  
Wind Chill: 25°   Ceiling: 2400
Heat Index: 32°   Visibility: 7mi
Dew Point: 28°   Wind: 8mph
Humidity: 85%   Direction: 160°SSE
Pressure: 30.22"   Gusts: NA
Location:  42.1893°N, 88.9437°W
Report Text: KRFD 210654Z 16007KT 7SM -DZ SCT019 BKN024 OVC035 00/M02 A3022 RMK AO2 DZB46SNE16 SLP241 P0000 T00001022
Loading
Personal Weather Stations






























Interactive Weather Map New forecast layout! Learn more

10-Day Weather Forecast

Advertisements
Track Severe Weather on mobile